Time;durP1;ratioP1;P1;durP2;ratioP2;P2;SDS_P1;SDS_P2;PMS_P1;PMS_P2;Temp;Humidity;BMP_temperature;BMP_pressure;BME280_temperature;BME280_humidity;BME280_pressure;Samples;Min_cycle;Max_cycle;Signal;HPM_P1;HPM_P2
2021/07/24 00:00:35;;;;;;;9.45;7.13;;;;;;;;;;4698417;30;20045;-82
2021/07/24 00:03:01;;;;;;;9.38;6.82;;;;;;;;;;4668197;30;20049;-82
2021/07/24 00:05:27;;;;;;;9.85;7.15;;;;;;;;;;4692647;30;20058;-81
2021/07/24 00:07:53;;;;;;;9.27;6.93;;;;;;;;;;4700089;30;20045;-81
2021/07/24 00:10:18;;;;;;;11.55;7.25;;;;;;;;;;4678252;30;20407;-82
2021/07/24 00:12:44;;;;;;;10.88;7.28;;;;;;;;;;4671696;30;20099;-81
2021/07/24 00:15:10;;;;;;;11.50;7.47;;;;;;;;;;4658163;30;20033;-81
2021/07/24 00:17:35;;;;;;;8.57;7.05;;;;;;;;;;4690624;30;20041;-82
2021/07/24 00:20:00;;;;;;;10.15;6.93;;;;;;;;;;4688338;30;20042;-81
2021/07/24 00:22:26;;;;;;;12.40;7.68;;;;;;;;;;4668878;30;20081;-81
2021/07/24 00:24:51;;;;;;;11.30;7.63;;;;;;;;;;4666135;30;20053;-81
2021/07/24 00:27:17;;;;;;;11.73;7.53;;;;;;;;;;4673038;30;20092;-81
2021/07/24 00:29:42;;;;;;;11.95;7.90;;;;;;;;;;4678098;30;20068;-82
2021/07/24 00:32:08;;;;;;;9.93;7.07;;;;;;;;;;4653908;30;20049;-81
2021/07/24 00:34:33;;;;;;;9.43;7.28;;;;;;;;;;4674805;30;20037;-81
2021/07/24 00:36:59;;;;;;;11.15;7.47;;;;;;;;;;4691973;30;20049;-81
2021/07/24 00:39:25;;;;;;;9.88;7.38;;;;;;;;;;4669025;30;20065;-81
2021/07/24 00:41:57;;;;;;;12.48;8.02;;;;;;;;;;4681901;30;20137;-81
2021/07/24 00:44:26;;;;;;;11.88;7.85;;;;;;;;;;4693917;30;20037;-81
2021/07/24 00:46:54;;;;;;;10.23;7.45;;;;;;;;;;4689727;30;20483;-82
2021/07/24 00:49:22;;;;;;;11.57;7.82;;;;;;;;;;4676079;30;20046;-81
2021/07/24 00:51:48;;;;;;;10.40;7.80;;;;;;;;;;4669655;30;20030;-81
2021/07/24 00:54:14;;;;;;;10.05;7.47;;;;;;;;;;4676350;30;20038;-82
2021/07/24 00:56:40;;;;;;;11.80;8.23;;;;;;;;;;4677080;30;20569;-81
2021/07/24 00:59:06;;;;;;;11.57;7.50;;;;;;;;;;4675896;30;20026;-81
2021/07/24 01:01:32;;;;;;;11.45;8.77;;;;;;;;;;4667196;30;20564;-81
2021/07/24 01:03:57;;;;;;;13.65;7.85;;;;;;;;;;4669101;30;20121;-81
2021/07/24 01:06:23;;;;;;;11.43;8.23;;;;;;;;;;4681285;30;20034;-81
2021/07/24 01:08:49;;;;;;;13.82;8.50;;;;;;;;;;4679063;30;20125;-81
2021/07/24 01:11:15;;;;;;;11.48;8.02;;;;;;;;;;4679362;30;20037;-81
2021/07/24 01:13:41;;;;;;;11.75;7.93;;;;;;;;;;4679812;30;20033;-81
2021/07/24 01:16:08;;;;;;;11.40;8.38;;;;;;;;;;4690937;30;20415;-81
2021/07/24 01:18:34;;;;;;;10.30;7.80;;;;;;;;;;4667398;30;20107;-81
2021/07/24 01:21:05;;;;;;;11.52;8.20;;;;;;;;;;4679010;30;20077;-81
2021/07/24 01:23:30;;;;;;;12.05;8.20;;;;;;;;;;4678858;30;20460;-81
2021/07/24 01:25:56;;;;;;;11.43;8.20;;;;;;;;;;4670267;30;20038;-81
2021/07/24 01:28:27;;;;;;;11.15;7.97;;;;;;;;;;4673319;30;20042;-81
2021/07/24 01:30:54;;;;;;;12.80;8.45;;;;;;;;;;4677984;30;20038;-81
2021/07/24 01:33:20;;;;;;;12.40;8.27;;;;;;;;;;4695202;30;20061;-81
2021/07/24 01:35:46;;;;;;;14.38;8.95;;;;;;;;;;4678595;30;20042;-81
2021/07/24 01:38:12;;;;;;;11.43;8.48;;;;;;;;;;4672282;30;20088;-81
2021/07/24 01:40:38;;;;;;;13.65;9.15;;;;;;;;;;4673499;30;20050;-81
2021/07/24 01:43:04;;;;;;;12.88;8.65;;;;;;;;;;4698071;30;20026;-81
2021/07/24 01:45:31;;;;;;;13.70;8.45;;;;;;;;;;4688814;30;20041;-81
2021/07/24 01:47:57;;;;;;;12.57;8.70;;;;;;;;;;4677152;30;20049;-81
2021/07/24 01:53:08;;;;;;;13.13;9.15;;;;;;;;;;4695375;30;20502;-81
2021/07/24 01:55:44;;;;;;;11.80;8.88;;;;;;;;;;4669555;30;20855;-81
2021/07/24 01:58:13;;;;;;;14.50;9.20;;;;;;;;;;4692364;30;20034;-81
2021/07/24 02:00:40;;;;;;;14.45;8.88;;;;;;;;;;4673448;30;20471;-81
2021/07/24 02:03:13;;;;;;;12.82;9.50;;;;;;;;;;4686420;30;20046;-81
2021/07/24 02:05:47;;;;;;;11.70;8.75;;;;;;;;;;4674392;30;20388;-81
2021/07/24 02:08:24;;;;;;;15.15;9.88;;;;;;;;;;4674455;30;20046;-81
2021/07/24 02:10:50;;;;;;;13.48;8.95;;;;;;;;;;4674423;30;20034;-80
2021/07/24 02:13:18;;;;;;;11.75;8.52;;;;;;;;;;4687858;30;20037;-81
2021/07/24 02:15:44;;;;;;;13.43;9.40;;;;;;;;;;4678195;30;20480;-81
2021/07/24 02:18:17;;;;;;;12.63;8.77;;;;;;;;;;4683513;30;20048;-81
2021/07/24 02:20:46;;;;;;;13.35;9.43;;;;;;;;;;4692488;30;20040;-81
2021/07/24 02:23:14;;;;;;;11.57;8.27;;;;;;;;;;4669138;30;20046;-81
2021/07/24 02:25:39;;;;;;;11.65;8.55;;;;;;;;;;4670593;30;20407;-81
2021/07/24 02:28:05;;;;;;;13.43;9.68;;;;;;;;;;4672004;30;20121;-81
2021/07/24 02:30:30;;;;;;;12.63;8.80;;;;;;;;;;4673895;30;20443;-81
2021/07/24 02:32:55;;;;;;;13.43;9.02;;;;;;;;;;4679044;30;20561;-81
2021/07/24 02:35:21;;;;;;;12.70;8.95;;;;;;;;;;4679078;30;20064;-81
2021/07/24 02:37:46;;;;;;;12.40;8.43;;;;;;;;;;4677132;30;20041;-81
2021/07/24 02:40:12;;;;;;;18.98;10.48;;;;;;;;;;4677815;30;20033;-81
2021/07/24 02:42:37;;;;;;;14.65;9.57;;;;;;;;;;4676737;30;20072;-81
2021/07/24 02:45:04;;;;;;;15.65;9.52;;;;;;;;;;4674438;30;20488;-81
2021/07/24 02:47:30;;;;;;;12.63;8.73;;;;;;;;;;4688337;30;20116;-81
2021/07/24 02:49:55;;;;;;;12.18;8.85;;;;;;;;;;4691290;30;20075;-81
2021/07/24 02:52:21;;;;;;;14.52;9.80;;;;;;;;;;4675784;30;20408;-81
2021/07/24 02:54:46;;;;;;;15.05;10.23;;;;;;;;;;4678212;30;20045;-81
2021/07/24 02:57:11;;;;;;;11.13;8.40;;;;;;;;;;4671186;30;20033;-81
2021/07/24 02:59:37;;;;;;;15.57;10.25;;;;;;;;;;4651862;30;20046;-81
2021/07/24 03:02:03;;;;;;;11.88;8.70;;;;;;;;;;4676187;30;20128;-81
2021/07/24 03:04:28;;;;;;;13.60;9.40;;;;;;;;;;4692781;30;20400;-81
2021/07/24 03:06:54;;;;;;;13.32;8.95;;;;;;;;;;4670192;30;20103;-81
2021/07/24 03:09:20;;;;;;;12.52;9.00;;;;;;;;;;4671741;30;20095;-81
2021/07/24 03:11:45;;;;;;;12.95;8.93;;;;;;;;;;4685293;30;20403;-81
2021/07/24 03:14:11;;;;;;;13.75;9.85;;;;;;;;;;4672556;30;20534;-81
2021/07/24 03:16:36;;;;;;;13.98;9.98;;;;;;;;;;4685836;30;20484;-81
2021/07/24 03:19:02;;;;;;;13.70;9.23;;;;;;;;;;4681874;30;20745;-81
2021/07/24 03:21:27;;;;;;;14.85;9.02;;;;;;;;;;4695575;30;20037;-81
2021/07/24 03:23:53;;;;;;;14.10;10.07;;;;;;;;;;4675603;30;20393;-81
2021/07/24 03:26:19;;;;;;;13.98;9.73;;;;;;;;;;4675676;30;20065;-81
2021/07/24 03:28:45;;;;;;;14.40;9.75;;;;;;;;;;4686606;30;20115;-81
2021/07/24 03:31:11;;;;;;;14.38;9.48;;;;;;;;;;4689790;30;20046;-81
2021/07/24 03:33:36;;;;;;;14.13;9.23;;;;;;;;;;4677336;30;20518;-81
2021/07/24 03:36:02;;;;;;;14.00;10.55;;;;;;;;;;4676672;30;20479;-81
2021/07/24 03:38:28;;;;;;;13.07;8.93;;;;;;;;;;4675461;30;20037;-81
2021/07/24 03:40:54;;;;;;;15.23;9.85;;;;;;;;;;4678745;30;20049;-81
2021/07/24 03:43:19;;;;;;;16.30;10.60;;;;;;;;;;4675460;30;20038;-80
2021/07/24 03:45:45;;;;;;;12.77;8.50;;;;;;;;;;4665293;30;20518;-81
2021/07/24 03:48:10;;;;;;;13.32;9.40;;;;;;;;;;4681670;30;20687;-81
2021/07/24 03:50:35;;;;;;;13.85;9.35;;;;;;;;;;4678281;30;20046;-81
2021/07/24 03:53:01;;;;;;;13.65;9.30;;;;;;;;;;4677620;30;20451;-81
2021/07/24 03:55:27;;;;;;;15.98;9.75;;;;;;;;;;4673233;30;20557;-81
2021/07/24 03:57:54;;;;;;;16.58;10.48;;;;;;;;;;4685026;30;20072;-81
2021/07/24 04:00:22;;;;;;;14.43;9.38;;;;;;;;;;4671557;30;20053;-81
2021/07/24 04:02:47;;;;;;;14.98;9.90;;;;;;;;;;4680173;30;20384;-81
2021/07/24 04:05:13;;;;;;;15.13;9.13;;;;;;;;;;4679255;30;20037;-81
2021/07/24 04:07:38;;;;;;;13.65;9.18;;;;;;;;;;4665687;30;20488;-81
2021/07/24 04:10:09;;;;;;;15.65;10.50;;;;;;;;;;4692497;30;20124;-81
2021/07/24 04:12:40;;;;;;;16.92;9.18;;;;;;;;;;4671522;30;20044;-81
2021/07/24 04:15:06;;;;;;;12.63;8.70;;;;;;;;;;4684070;30;20041;-81
2021/07/24 04:17:32;;;;;;;12.10;8.63;;;;;;;;;;4675322;30;20173;-81
2021/07/24 04:19:57;;;;;;;13.88;8.90;;;;;;;;;;4671067;30;20120;-81
2021/07/24 04:22:23;;;;;;;13.38;7.97;;;;;;;;;;4678904;30;20074;-80
2021/07/24 04:24:48;;;;;;;14.15;9.70;;;;;;;;;;4670164;30;20058;-81
2021/07/24 04:27:14;;;;;;;12.25;8.65;;;;;;;;;;4667819;30;20040;-81
2021/07/24 04:29:39;;;;;;;16.38;8.70;;;;;;;;;;4702329;30;20049;-81
2021/07/24 04:32:05;;;;;;;13.00;8.23;;;;;;;;;;4698125;30;20086;-81
2021/07/24 04:34:31;;;;;;;12.82;8.10;;;;;;;;;;4668279;30;20635;-81
2021/07/24 04:36:56;;;;;;;12.50;8.15;;;;;;;;;;4670189;30;20034;-81
2021/07/24 04:39:22;;;;;;;14.98;9.43;;;;;;;;;;4674374;30;20046;-81
2021/07/24 04:41:47;;;;;;;12.20;8.50;;;;;;;;;;4671473;30;20042;-81
2021/07/24 04:44:12;;;;;;;13.93;8.63;;;;;;;;;;4676649;30;20048;-81
2021/07/24 04:46:38;;;;;;;15.20;9.05;;;;;;;;;;4670337;30;20048;-81
2021/07/24 04:49:03;;;;;;;16.15;9.88;;;;;;;;;;4685362;30;20049;-81
2021/07/24 04:51:29;;;;;;;14.05;8.60;;;;;;;;;;4672776;30;20045;-81
2021/07/24 04:53:55;;;;;;;12.77;8.23;;;;;;;;;;4672182;30;20459;-81
2021/07/24 04:56:22;;;;;;;14.70;8.27;;;;;;;;;;4672658;30;20503;-81
2021/07/24 04:58:49;;;;;;;12.35;8.77;;;;;;;;;;4674371;30;20380;-81
2021/07/24 05:01:14;;;;;;;12.38;8.32;;;;;;;;;;4677815;30;20045;-81
2021/07/24 05:03:40;;;;;;;11.93;8.57;;;;;;;;;;4698263;30;20385;-81
2021/07/24 05:06:06;;;;;;;11.82;8.07;;;;;;;;;;4693698;30;20396;-81
2021/07/24 05:08:36;;;;;;;11.38;7.95;;;;;;;;;;4668945;30;20034;-81
2021/07/24 05:11:02;;;;;;;13.15;9.10;;;;;;;;;;4690679;30;20061;-81
2021/07/24 05:13:27;;;;;;;11.52;8.30;;;;;;;;;;4671105;30;20496;-81
2021/07/24 05:15:53;;;;;;;12.43;8.35;;;;;;;;;;4674527;30;20038;-81
2021/07/24 05:18:19;;;;;;;14.82;8.98;;;;;;;;;;4698655;30;20456;-81
2021/07/24 05:20:44;;;;;;;14.38;9.00;;;;;;;;;;4673281;30;20033;-80
2021/07/24 05:23:10;;;;;;;11.70;7.90;;;;;;;;;;4682303;30;20488;-81
2021/07/24 05:25:37;;;;;;;15.77;9.75;;;;;;;;;;4677983;30;20169;-81
2021/07/24 05:28:03;;;;;;;12.10;8.18;;;;;;;;;;4688385;30;20037;-81
2021/07/24 05:30:28;;;;;;;14.02;9.32;;;;;;;;;;4690317;30;20036;-81
2021/07/24 05:32:54;;;;;;;11.98;7.55;;;;;;;;;;4664494;30;20038;-81
2021/07/24 05:35:19;;;;;;;13.85;9.25;;;;;;;;;;4679284;30;20055;-81
2021/07/24 05:37:45;;;;;;;17.00;9.98;;;;;;;;;;4678368;30;20077;-81
2021/07/24 05:40:10;;;;;;;12.65;8.15;;;;;;;;;;4686170;30;20084;-81
2021/07/24 05:42:36;;;;;;;13.35;8.65;;;;;;;;;;4693832;30;20049;-81
2021/07/24 05:45:02;;;;;;;12.55;8.27;;;;;;;;;;4677366;30;20455;-81
2021/07/24 05:47:30;;;;;;;13.07;8.63;;;;;;;;;;4672302;30;20116;-81
2021/07/24 05:49:55;;;;;;;12.90;8.70;;;;;;;;;;4677661;30;20033;-81
2021/07/24 05:52:21;;;;;;;12.20;8.70;;;;;;;;;;4677850;30;20038;-81
2021/07/24 05:54:47;;;;;;;14.98;8.88;;;;;;;;;;4694501;30;20042;-81
2021/07/24 05:57:13;;;;;;;14.13;8.70;;;;;;;;;;4679457;30;20415;-81
2021/07/24 05:59:38;;;;;;;12.27;8.27;;;;;;;;;;4682233;30;20038;-81
2021/07/24 06:02:05;;;;;;;12.30;8.27;;;;;;;;;;4668909;30;20101;-81
2021/07/24 06:04:32;;;;;;;15.73;9.90;;;;;;;;;;4684494;30;20037;-80
2021/07/24 06:06:57;;;;;;;16.23;10.43;;;;;;;;;;4676994;30;20043;-81
2021/07/24 06:09:23;;;;;;;14.32;9.88;;;;;;;;;;4678083;30;20120;-81
2021/07/24 06:11:48;;;;;;;15.85;9.07;;;;;;;;;;4671542;30;20515;-81
2021/07/24 06:14:14;;;;;;;13.20;8.57;;;;;;;;;;4671550;30;20151;-81
2021/07/24 06:16:39;;;;;;;15.90;9.85;;;;;;;;;;4685636;30;20046;-81
2021/07/24 06:19:05;;;;;;;15.13;10.48;;;;;;;;;;4671584;30;20033;-80
2021/07/24 06:21:30;;;;;;;18.30;10.10;;;;;;;;;;4692749;30;20124;-81
2021/07/24 06:23:56;;;;;;;13.63;9.23;;;;;;;;;;4672287;30;20066;-80
2021/07/24 06:26:21;;;;;;;17.48;10.40;;;;;;;;;;4687571;30;20487;-80
2021/07/24 06:28:46;;;;;;;14.55;10.57;;;;;;;;;;4673676;30;20484;-80
2021/07/24 06:31:12;;;;;;;17.23;10.27;;;;;;;;;;4665555;30;20129;-80
2021/07/24 06:33:37;;;;;;;14.95;9.48;;;;;;;;;;4675079;30;20049;-80
2021/07/24 06:36:03;;;;;;;16.90;10.13;;;;;;;;;;4670174;30;20037;-81
2021/07/24 06:38:29;;;;;;;14.52;9.88;;;;;;;;;;4693358;30;20530;-81
2021/07/24 06:40:56;;;;;;;15.63;10.30;;;;;;;;;;4680198;30;20037;-81
2021/07/24 06:43:21;;;;;;;16.40;10.25;;;;;;;;;;4667795;30;20108;-81
2021/07/24 06:45:48;;;;;;;17.55;10.50;;;;;;;;;;4693022;30;20034;-81
2021/07/24 06:48:14;;;;;;;14.05;8.45;;;;;;;;;;4673503;30;20443;-81
2021/07/24 06:50:39;;;;;;;15.63;11.05;;;;;;;;;;4665736;30;20038;-81
2021/07/24 06:53:05;;;;;;;14.63;9.98;;;;;;;;;;4690653;30;20167;-81
2021/07/24 06:55:30;;;;;;;16.10;10.57;;;;;;;;;;4692833;30;20068;-81
2021/07/24 06:58:01;;;;;;;14.70;10.32;;;;;;;;;;4665662;30;20128;-81
2021/07/24 07:00:27;;;;;;;16.50;9.90;;;;;;;;;;4679327;30;20041;-81
2021/07/24 07:02:56;;;;;;;12.85;9.32;;;;;;;;;;4680587;30;20034;-81
2021/07/24 07:05:22;;;;;;;12.90;9.30;;;;;;;;;;4680505;30;20046;-81
2021/07/24 07:07:47;;;;;;;15.43;9.55;;;;;;;;;;4681723;30;20045;-81
2021/07/24 07:10:12;;;;;;;17.52;10.32;;;;;;;;;;4698946;30;20395;-80
2021/07/24 07:12:38;;;;;;;16.17;10.02;;;;;;;;;;4683016;30;20049;-81
2021/07/24 07:15:08;;;;;;;16.98;9.73;;;;;;;;;;4657132;30;20030;-81
2021/07/24 07:17:35;;;;;;;16.13;10.60;;;;;;;;;;4670660;30;20099;-81
2021/07/24 07:20:08;;;;;;;16.23;10.48;;;;;;;;;;4685106;30;20061;-81
2021/07/24 07:22:34;;;;;;;14.48;10.13;;;;;;;;;;4679782;30;20065;-81
2021/07/24 07:25:00;;;;;;;13.80;9.93;;;;;;;;;;4683127;30;20085;-80
2021/07/24 07:27:25;;;;;;;12.73;9.32;;;;;;;;;;4696298;30;20041;-81
2021/07/24 07:29:51;;;;;;;16.77;10.13;;;;;;;;;;4700463;30;20064;-81
2021/07/24 07:32:17;;;;;;;14.63;9.82;;;;;;;;;;4700398;30;20044;-81
2021/07/24 07:34:42;;;;;;;16.90;10.27;;;;;;;;;;4673014;30;20052;-81
2021/07/24 07:37:08;;;;;;;13.50;8.98;;;;;;;;;;4670612;30;20034;-81
2021/07/24 07:39:33;;;;;;;15.80;10.60;;;;;;;;;;4675743;30;20034;-82
2021/07/24 07:41:59;;;;;;;13.38;10.15;;;;;;;;;;4673479;30;20106;-81
2021/07/24 07:44:24;;;;;;;14.45;10.73;;;;;;;;;;4673296;30;20072;-81
2021/07/24 07:46:53;;;;;;;13.32;10.35;;;;;;;;;;4673184;30;20041;-81
2021/07/24 07:49:18;;;;;;;17.85;11.25;;;;;;;;;;4672414;30;20034;-81
2021/07/24 07:51:44;;;;;;;15.07;9.65;;;;;;;;;;4665459;30;20057;-81
2021/07/24 07:54:10;;;;;;;13.48;9.70;;;;;;;;;;4686744;30;20078;-81
2021/07/24 07:56:35;;;;;;;15.75;10.77;;;;;;;;;;4683306;30;20041;-81
2021/07/24 07:59:01;;;;;;;14.52;10.35;;;;;;;;;;4671545;30;20046;-81
2021/07/24 08:01:29;;;;;;;13.43;10.73;;;;;;;;;;4673424;30;20454;-81
2021/07/24 08:03:55;;;;;;;14.88;10.88;;;;;;;;;;4666635;30;20480;-81
2021/07/24 08:06:20;;;;;;;15.90;10.27;;;;;;;;;;4673652;30;20048;-81
2021/07/24 08:08:46;;;;;;;15.65;11.20;;;;;;;;;;4673021;30;20071;-81
2021/07/24 08:11:11;;;;;;;15.82;10.07;;;;;;;;;;4660302;30;20042;-81
2021/07/24 08:13:39;;;;;;;15.00;10.98;;;;;;;;;;4654402;30;20042;-81
2021/07/24 08:16:13;;;;;;;13.75;10.52;;;;;;;;;;4688153;30;20030;-81
2021/07/24 08:18:38;;;;;;;13.75;10.43;;;;;;;;;;4690999;30;20045;-81
2021/07/24 08:21:04;;;;;;;16.55;10.75;;;;;;;;;;4668542;30;20539;-80
2021/07/24 08:23:30;;;;;;;14.18;10.05;;;;;;;;;;4672542;30;20062;-81
2021/07/24 08:25:55;;;;;;;13.32;9.57;;;;;;;;;;4675195;30;20927;-81
2021/07/24 08:28:26;;;;;;;14.43;10.13;;;;;;;;;;4673355;30;20062;-81
2021/07/24 08:30:52;;;;;;;13.73;10.02;;;;;;;;;;4678849;30;20036;-81
2021/07/24 08:33:17;;;;;;;13.48;10.02;;;;;;;;;;4684053;30;20117;-81
2021/07/24 08:35:45;;;;;;;15.75;10.65;;;;;;;;;;4669222;30;20104;-81
2021/07/24 08:38:11;;;;;;;14.00;9.73;;;;;;;;;;4685889;30;20080;-81
2021/07/24 08:40:40;;;;;;;14.73;10.20;;;;;;;;;;4699826;30;20053;-79
2021/07/24 08:43:07;;;;;;;15.98;10.48;;;;;;;;;;4670572;30;20053;-78
2021/07/24 08:45:33;;;;;;;14.23;10.63;;;;;;;;;;4686917;30;20042;-78
2021/07/24 08:48:00;;;;;;;13.68;10.57;;;;;;;;;;4693394;30;20123;-78
2021/07/24 08:50:26;;;;;;;14.73;9.85;;;;;;;;;;4694638;30;20470;-78
2021/07/24 08:52:59;;;;;;;13.25;9.95;;;;;;;;;;4674033;30;20076;-78
2021/07/24 08:55:25;;;;;;;14.02;10.52;;;;;;;;;;4698158;30;20589;-78
2021/07/24 08:57:54;;;;;;;13.15;9.65;;;;;;;;;;4682529;30;20038;-79
2021/07/24 09:00:22;;;;;;;13.85;10.05;;;;;;;;;;4685510;30;20392;-78
2021/07/24 09:02:51;;;;;;;12.70;9.60;;;;;;;;;;4697213;30;20041;-79
2021/07/24 09:05:17;;;;;;;16.50;10.27;;;;;;;;;;4678978;30;20042;-79
2021/07/24 09:07:46;;;;;;;12.10;9.95;;;;;;;;;;4678226;30;20561;-78
2021/07/24 09:10:12;;;;;;;13.40;10.57;;;;;;;;;;4687529;30;20490;-79
2021/07/24 09:12:43;;;;;;;15.43;10.73;;;;;;;;;;4709145;30;20120;-79
2021/07/24 09:15:10;;;;;;;14.85;9.73;;;;;;;;;;4703646;30;20034;-78
2021/07/24 09:17:36;;;;;;;13.30;9.32;;;;;;;;;;4656075;30;20057;-79
2021/07/24 09:20:02;;;;;;;16.55;9.70;;;;;;;;;;4682043;30;20631;-78
2021/07/24 09:22:27;;;;;;;14.13;9.55;;;;;;;;;;4688831;30;20159;-78
2021/07/24 09:25:08;;;;;;;13.35;10.05;;;;;;;;;;4680848;30;20065;-78
2021/07/24 09:27:35;;;;;;;14.88;10.30;;;;;;;;;;4697209;30;20042;-78
2021/07/24 09:30:01;;;;;;;13.82;10.32;;;;;;;;;;4673567;30;20730;-78
2021/07/24 09:32:28;;;;;;;14.80;10.02;;;;;;;;;;4678398;30;20111;-78
2021/07/24 09:34:53;;;;;;;13.07;9.73;;;;;;;;;;4700310;30;20079;-79
2021/07/24 09:37:25;;;;;;;16.35;10.98;;;;;;;;;;4668376;30;20038;-79
2021/07/24 09:39:51;;;;;;;14.30;9.98;;;;;;;;;;4691923;30;20048;-78
2021/07/24 09:42:18;;;;;;;14.07;10.57;;;;;;;;;;4676420;30;20057;-78
2021/07/24 09:44:43;;;;;;;14.88;10.48;;;;;;;;;;4667375;30;20033;-78
2021/07/24 09:47:09;;;;;;;15.70;10.50;;;;;;;;;;4668244;30;20519;-78
2021/07/24 09:49:36;;;;;;;15.18;10.55;;;;;;;;;;4681182;30;20048;-78
2021/07/24 09:52:12;;;;;;;13.68;10.18;;;;;;;;;;4680327;30;20538;-79
2021/07/24 09:54:38;;;;;;;15.00;10.93;;;;;;;;;;4677835;30;20044;-79
2021/07/24 09:57:03;;;;;;;14.40;10.55;;;;;;;;;;4678721;30;20742;-78
2021/07/24 09:59:31;;;;;;;16.60;11.07;;;;;;;;;;4669317;30;20042;-78
2021/07/24 10:02:03;;;;;;;16.52;10.80;;;;;;;;;;4676092;30;20056;-78
2021/07/24 10:04:35;;;;;;;13.27;9.88;;;;;;;;;;4694919;30;20037;-78
2021/07/24 10:07:08;;;;;;;13.00;9.88;;;;;;;;;;4699737;30;20084;-79
2021/07/24 10:09:36;;;;;;;13.75;10.50;;;;;;;;;;4670786;30;20046;-78
2021/07/24 10:12:03;;;;;;;13.30;10.23;;;;;;;;;;4690385;30;20033;-78
2021/07/24 10:14:29;;;;;;;12.75;10.07;;;;;;;;;;4690578;30;20041;-79
2021/07/24 10:16:56;;;;;;;15.57;11.15;;;;;;;;;;4669270;30;20041;-78
2021/07/24 10:19:23;;;;;;;18.75;10.75;;;;;;;;;;4660448;30;20049;-78
2021/07/24 10:21:50;;;;;;;15.93;11.07;;;;;;;;;;4688531;30;20056;-78
2021/07/24 10:24:15;;;;;;;16.83;11.40;;;;;;;;;;4658039;30;20069;-78
2021/07/24 10:26:50;;;;;;;15.27;10.73;;;;;;;;;;4675280;30;20084;-78
2021/07/24 10:29:21;;;;;;;14.40;10.45;;;;;;;;;;4674871;30;20038;-78
2021/07/24 10:31:52;;;;;;;14.43;10.63;;;;;;;;;;4672486;30;20042;-78
2021/07/24 10:34:22;;;;;;;14.45;10.27;;;;;;;;;;4689063;30;20029;-78
2021/07/24 10:36:48;;;;;;;13.98;10.40;;;;;;;;;;4686856;30;20128;-78
2021/07/24 10:39:16;;;;;;;14.77;10.38;;;;;;;;;;4670397;30;20128;-79
2021/07/24 10:41:45;;;;;;;13.75;10.30;;;;;;;;;;4671549;30;20041;-82
2021/07/24 10:44:12;;;;;;;13.10;9.50;;;;;;;;;;4691599;30;20569;-78
2021/07/24 10:46:44;;;;;;;14.00;10.13;;;;;;;;;;4689439;30;20065;-79
2021/07/24 10:49:21;;;;;;;16.95;10.32;;;;;;;;;;4675984;30;20033;-78
2021/07/24 10:51:57;;;;;;;12.30;10.15;;;;;;;;;;4689423;30;20461;-79
2021/07/24 10:54:24;;;;;;;13.95;9.52;;;;;;;;;;4668501;30;20127;-79
2021/07/24 10:56:50;;;;;;;13.90;10.70;;;;;;;;;;4682421;30;20045;-79
2021/07/24 10:59:31;;;;;;;15.25;10.65;;;;;;;;;;4680234;30;20092;-78
2021/07/24 11:02:00;;;;;;;16.15;11.13;;;;;;;;;;4673371;30;20115;-78
2021/07/24 11:04:38;;;;;;;15.52;10.25;;;;;;;;;;4671014;30;20116;-79
2021/07/24 11:07:12;;;;;;;15.70;10.82;;;;;;;;;;4692545;30;20048;-78
2021/07/24 11:09:42;;;;;;;13.90;10.52;;;;;;;;;;4690837;30;20176;-79
2021/07/24 11:12:11;;;;;;;17.02;10.93;;;;;;;;;;4667038;30;20060;-79
2021/07/24 11:14:43;;;;;;;17.75;11.90;;;;;;;;;;4692770;30;20050;-79
2021/07/24 11:17:11;;;;;;;18.88;11.27;;;;;;;;;;4691043;30;20034;-79
2021/07/24 11:19:44;;;;;;;16.17;11.95;;;;;;;;;;4697510;30;20037;-79
2021/07/24 11:22:28;;;;;;;17.08;11.68;;;;;;;;;;4695173;30;20053;-78
2021/07/24 11:24:57;;;;;;;13.90;10.95;;;;;;;;;;4678170;30;20969;-79
2021/07/24 11:27:29;;;;;;;19.25;12.70;;;;;;;;;;4668314;30;20168;-78
2021/07/24 11:30:03;;;;;;;;;;;;;;;;;;4690256;30;20065;-78
2021/07/24 11:32:34;;;;;;;15.43;12.07;;;;;;;;;;4667439;30;20003;-79
2021/07/24 11:35:08;;;;;;;17.75;12.65;;;;;;;;;;4688847;30;20570;-78
2021/07/24 11:37:36;;;;;;;15.73;12.52;;;;;;;;;;4673763;30;20053;-79
2021/07/24 11:40:03;;;;;;;16.13;11.82;;;;;;;;;;4671773;30;20034;-79
2021/07/24 11:42:29;;;;;;;16.20;11.80;;;;;;;;;;4674027;30;20038;-79
2021/07/24 11:44:54;;;;;;;16.33;12.02;;;;;;;;;;4660997;30;20456;-78
2021/07/24 11:47:20;;;;;;;19.92;11.95;;;;;;;;;;4665262;30;20042;-78
2021/07/24 11:49:45;;;;;;;18.23;12.27;;;;;;;;;;4661784;30;20515;-79
2021/07/24 11:52:11;;;;;;;15.98;12.15;;;;;;;;;;4659970;30;20098;-79
2021/07/24 11:54:37;;;;;;;17.05;12.70;;;;;;;;;;4687994;30;20508;-79
2021/07/24 11:57:04;;;;;;;18.13;11.90;;;;;;;;;;4674946;30;20527;-78
2021/07/24 11:59:34;;;;;;;18.50;12.40;;;;;;;;;;4665681;30;20045;-79
2021/07/24 12:02:00;;;;;;;18.08;12.45;;;;;;;;;;4672616;30;20511;-79
2021/07/24 12:04:27;;;;;;;19.25;12.77;;;;;;;;;;4663650;30;20164;-79
2021/07/24 12:07:00;;;;;;;18.73;12.88;;;;;;;;;;4694896;30;20515;-79
2021/07/24 12:09:26;;;;;;;;;;;;;;;;;;4691050;30;20103;-79
2021/07/24 12:11:57;;;;;;;16.48;12.25;;;;;;;;;;4673226;30;19932;-79
2021/07/24 12:14:25;;;;;;;16.80;12.50;;;;;;;;;;4685851;30;20030;-79
2021/07/24 12:17:02;;;;;;;17.25;13.07;;;;;;;;;;4686222;30;20037;-79
2021/07/24 12:19:59;;;;;;;18.58;12.55;;;;;;;;;;4674988;30;20037;-78
2021/07/24 12:22:27;;;;;;;17.50;12.75;;;;;;;;;;4671470;30;20053;-79
2021/07/24 12:25:13;;;;;;;16.77;13.18;;;;;;;;;;4675792;30;20474;-78
2021/07/24 12:27:49;;;;;;;16.35;12.15;;;;;;;;;;4674839;30;20490;-79
2021/07/24 12:30:27;;;;;;;17.83;12.70;;;;;;;;;;4668592;30;20065;-79
2021/07/24 12:32:52;;;;;;;19.50;13.48;;;;;;;;;;4650735;30;20384;-79
2021/07/24 12:35:21;;;;;;;17.63;13.20;;;;;;;;;;4672068;30;20045;-78
2021/07/24 12:37:47;;;;;;;16.48;13.50;;;;;;;;;;4692146;30;20058;-78
2021/07/24 12:40:19;;;;;;;18.80;14.50;;;;;;;;;;4651021;30;20492;-78
2021/07/24 12:42:46;;;;;;;20.88;14.40;;;;;;;;;;4683696;30;20045;-79
2021/07/24 12:45:26;;;;;;;18.77;13.05;;;;;;;;;;4669443;30;20050;-79
2021/07/24 12:47:52;;;;;;;18.35;13.82;;;;;;;;;;4694094;30;20049;-79
2021/07/24 12:50:18;;;;;;;17.85;13.75;;;;;;;;;;4663549;30;20152;-78
2021/07/24 12:52:51;;;;;;;22.05;13.55;;;;;;;;;;4670267;30;20597;-78
2021/07/24 12:55:22;;;;;;;19.17;13.48;;;;;;;;;;4694005;30;20036;-78
2021/07/24 12:57:48;;;;;;;17.85;13.45;;;;;;;;;;4679340;30;20053;-78
2021/07/24 13:00:18;;;;;;;18.88;13.75;;;;;;;;;;4689019;30;20052;-79
2021/07/24 13:02:43;;;;;;;18.67;13.55;;;;;;;;;;4672708;30;20510;-79
2021/07/24 13:05:10;;;;;;;17.80;14.13;;;;;;;;;;4688779;30;20062;-79
2021/07/24 13:07:38;;;;;;;18.25;14.05;;;;;;;;;;4668294;30;20492;-79
2021/07/24 13:10:05;;;;;;;20.50;14.40;;;;;;;;;;4675799;30;20061;-79
2021/07/24 13:12:31;;;;;;;19.42;15.23;;;;;;;;;;4685029;30;20052;-79
2021/07/24 13:14:56;;;;;;;25.58;16.40;;;;;;;;;;4695335;30;20037;-78
2021/07/24 13:17:24;;;;;;;19.45;15.65;;;;;;;;;;4662756;30;20140;-79
2021/07/24 13:19:49;;;;;;;24.00;15.95;;;;;;;;;;4695046;30;20042;-79
2021/07/24 13:22:15;;;;;;;22.08;16.30;;;;;;;;;;4669325;30;20102;-79
2021/07/24 13:24:40;;;;;;;22.25;16.08;;;;;;;;;;4676769;30;20514;-79
2021/07/24 13:29:50;;;;;;;20.02;16.25;;;;;;;;;;4677839;30;20558;-79
2021/07/24 13:32:16;;;;;;;18.63;15.88;;;;;;;;;;4675510;30;20042;-79
2021/07/24 13:34:42;;;;;;;19.73;17.27;;;;;;;;;;4689362;30;20042;-79
2021/07/24 13:37:08;;;;;;;27.85;18.15;;;;;;;;;;4674372;30;20049;-79
2021/07/24 13:39:34;;;;;;;20.48;16.92;;;;;;;;;;4665023;30;20044;-79
2021/07/24 13:41:59;;;;;;;22.55;17.35;;;;;;;;;;4694603;30;20583;-79
2021/07/24 13:44:25;;;;;;;24.92;17.73;;;;;;;;;;4673356;30;20076;-78
2021/07/24 13:46:52;;;;;;;17.35;14.55;;;;;;;;;;4675555;30;20491;-79
2021/07/24 13:49:17;;;;;;;20.52;16.33;;;;;;;;;;4679395;30;20084;-79
2021/07/24 13:51:43;;;;;;;19.00;15.23;;;;;;;;;;4667515;30;21176;-79
2021/07/24 13:54:09;;;;;;;21.13;16.60;;;;;;;;;;4691763;30;20060;-79
2021/07/24 13:56:35;;;;;;;21.58;14.70;;;;;;;;;;4666341;30;20448;-79
2021/07/24 13:59:01;;;;;;;20.85;16.10;;;;;;;;;;4692286;30;20052;-79
2021/07/24 14:01:26;;;;;;;20.65;15.60;;;;;;;;;;4672232;30;20054;-79
2021/07/24 14:03:53;;;;;;;19.00;14.73;;;;;;;;;;4680103;30;20122;-79
2021/07/24 14:06:18;;;;;;;20.65;15.05;;;;;;;;;;4690639;30;20049;-79
2021/07/24 14:08:44;;;;;;;20.33;15.35;;;;;;;;;;4669833;30;20053;-78
2021/07/24 14:11:17;;;;;;;15.25;12.80;;;;;;;;;;4675737;30;20041;-79
2021/07/24 14:13:43;;;;;;;18.98;14.82;;;;;;;;;;4668215;30;20164;-78
2021/07/24 14:16:19;;;;;;;18.58;13.90;;;;;;;;;;4691230;30;20148;-78
2021/07/24 14:18:45;;;;;;;18.38;14.32;;;;;;;;;;4674686;30;20109;-79
2021/07/24 14:21:16;;;;;;;19.58;13.43;;;;;;;;;;4689077;30;20144;-79
2021/07/24 14:23:42;;;;;;;17.70;13.70;;;;;;;;;;4676980;30;20064;-78
2021/07/24 14:26:07;;;;;;;16.85;12.63;;;;;;;;;;4674479;30;20068;-78
2021/07/24 14:28:33;;;;;;;15.70;12.50;;;;;;;;;;4692508;30;20064;-80